createdAt,value
2019-03-26T00:01:35.105Z,6.70
2019-03-26T00:04:06.076Z,6.90
2019-03-26T00:06:31.055Z,6.90
2019-03-26T00:08:58.671Z,6.90
2019-03-26T00:11:26.358Z,6.90
2019-03-26T00:13:53.944Z,6.90
2019-03-26T00:16:22.673Z,7.00
2019-03-26T00:18:50.249Z,7.00
2019-03-26T00:21:17.837Z,7.00
2019-03-26T00:23:45.462Z,6.90
2019-03-26T00:26:13.038Z,6.90
2019-03-26T00:28:41.058Z,6.90
2019-03-26T00:31:08.596Z,6.80
2019-03-26T00:33:37.034Z,6.90
2019-03-26T00:36:04.516Z,6.90
2019-03-26T00:38:32.259Z,6.90
2019-03-26T00:40:59.802Z,6.80
2019-03-26T00:43:27.396Z,6.90
2019-03-26T00:45:55.000Z,7.00
2019-03-26T00:48:22.575Z,7.00
2019-03-26T00:50:50.151Z,7.00
2019-03-26T00:53:17.777Z,6.90
2019-03-26T00:55:46.122Z,7.00
2019-03-26T00:58:13.728Z,7.00
2019-03-26T01:00:41.309Z,6.90
2019-03-26T01:03:08.960Z,7.00
2019-03-26T01:05:36.541Z,7.00
2019-03-26T01:08:04.165Z,7.00
2019-03-26T01:10:31.732Z,6.90
2019-03-26T01:13:00.074Z,6.90
2019-03-26T01:15:27.755Z,6.80
2019-03-26T01:17:55.324Z,6.80
2019-03-26T01:20:23.664Z,6.70
2019-03-26T01:22:51.339Z,6.70
2019-03-26T01:25:19.617Z,6.70
2019-03-26T01:27:47.185Z,6.60
2019-03-26T01:30:14.831Z,6.60
2019-03-26T01:32:42.402Z,6.60
2019-03-26T01:35:09.973Z,6.70
2019-03-26T01:37:37.579Z,6.70
2019-03-26T01:40:05.159Z,6.70
2019-03-26T01:42:32.734Z,6.80
2019-03-26T01:45:00.380Z,6.80
2019-03-26T01:47:27.913Z,6.80
2019-03-26T01:49:56.256Z,6.60
2019-03-26T01:52:24.281Z,6.70
2019-03-26T01:54:51.855Z,6.60
2019-03-26T01:57:19.428Z,6.50
2019-03-26T01:59:47.036Z,6.50
2019-03-26T02:02:14.604Z,6.40
2019-03-26T02:04:42.946Z,6.40
2019-03-26T02:07:10.551Z,6.40
2019-03-26T02:09:38.133Z,6.40
2019-03-26T02:12:05.784Z,6.30
2019-03-26T02:14:33.331Z,6.30
2019-03-26T02:17:00.939Z,6.30
2019-03-26T02:19:28.472Z,6.30
2019-03-26T02:21:56.478Z,6.40
2019-03-26T02:24:24.052Z,6.40
2019-03-26T02:26:51.628Z,6.50
2019-03-26T02:29:19.315Z,6.50
2019-03-26T02:31:47.656Z,6.50
2019-03-26T02:34:15.231Z,6.50
2019-03-26T02:36:42.873Z,6.50
2019-03-26T02:39:10.455Z,6.50
2019-03-26T02:41:38.314Z,6.50
2019-03-26T02:44:06.399Z,6.90
2019-03-26T02:46:33.978Z,6.90
2019-03-26T02:49:02.335Z,6.90
2019-03-26T02:51:29.938Z,6.90
2019-03-26T02:53:57.528Z,6.90
2019-03-26T02:56:25.091Z,6.90
2019-03-26T02:58:53.041Z,6.90
2019-03-26T03:01:20.630Z,6.90
2019-03-26T03:03:48.208Z,6.90
2019-03-26T03:06:15.811Z,6.90
2019-03-26T03:08:43.375Z,6.80
2019-03-26T03:11:10.947Z,6.70
2019-03-26T03:13:38.555Z,6.70
2019-03-26T03:16:06.126Z,6.60
2019-03-26T03:18:33.704Z,6.50
2019-03-26T03:21:02.098Z,6.50
2019-03-26T03:23:29.670Z,6.40
2019-03-26T03:25:57.248Z,6.40
2019-03-26T03:28:24.844Z,6.40
2019-03-26T03:30:52.439Z,6.30
2019-03-26T03:33:20.782Z,6.20
2019-03-26T03:35:52.672Z,6.20
2019-03-26T03:38:15.967Z,6.20
2019-03-26T03:40:43.544Z,6.20
2019-03-26T03:43:11.209Z,6.20
2019-03-26T03:45:38.773Z,6.10
2019-03-26T03:48:06.345Z,6.10
2019-03-26T03:50:33.943Z,6.10
2019-03-26T03:53:01.596Z,6.10
2019-03-26T03:55:29.106Z,6.10
2019-03-26T03:57:56.720Z,6.00
2019-03-26T04:00:31.010Z,6.00
2019-03-26T04:02:58.576Z,6.00
2019-03-26T04:05:26.221Z,6.00
2019-03-26T04:07:53.805Z,5.90
2019-03-26T04:10:21.371Z,5.90
2019-03-26T04:12:48.982Z,5.90
2019-03-26T04:15:16.561Z,6.00
2019-03-26T04:17:44.139Z,6.00
2019-03-26T04:20:11.744Z,6.10
2019-03-26T04:22:40.086Z,6.00
2019-03-26T04:25:07.647Z,6.00
2019-03-26T04:27:35.631Z,6.10
2019-03-26T04:30:03.190Z,6.00
2019-03-26T04:32:31.129Z,6.10
2019-03-26T04:34:58.739Z,6.00
2019-03-26T04:37:27.070Z,6.10
2019-03-26T04:39:54.653Z,6.10
2019-03-26T04:42:22.266Z,6.10
2019-03-26T04:44:49.841Z,6.10
2019-03-26T04:47:17.414Z,6.20
2019-03-26T04:49:45.473Z,6.20
2019-03-26T04:52:13.046Z,6.20
2019-03-26T04:54:40.614Z,6.30
2019-03-26T04:57:08.228Z,6.30
2019-03-26T04:59:35.801Z,6.30
2019-03-26T05:02:03.376Z,6.30
2019-03-26T05:04:31.060Z,6.30
2019-03-26T05:06:58.639Z,6.40
2019-03-26T05:09:26.212Z,6.40
2019-03-26T05:11:54.423Z,6.40
2019-03-26T05:14:22.008Z,6.40
2019-03-26T05:16:49.577Z,6.50
2019-03-26T05:19:17.199Z,6.50
2019-03-26T05:21:45.543Z,6.50
2019-03-26T05:24:13.148Z,6.50
2019-03-26T05:26:40.902Z,6.50
2019-03-26T05:29:08.820Z,6.40
2019-03-26T05:31:36.366Z,6.40
2019-03-26T05:34:04.002Z,6.50
2019-03-26T05:36:32.349Z,6.50
2019-03-26T05:38:59.917Z,6.50
2019-03-26T05:41:27.526Z,6.40
2019-03-26T05:43:55.104Z,6.40
2019-03-26T05:46:22.673Z,6.30
2019-03-26T05:48:50.282Z,6.30
2019-03-26T05:51:17.889Z,6.20
2019-03-26T05:53:45.430Z,6.20
2019-03-26T05:56:13.644Z,6.10
2019-03-26T05:58:46.742Z,6.10
2019-03-26T06:01:14.488Z,6.30
2019-03-26T06:03:41.921Z,6.30
2019-03-26T06:06:09.491Z,6.40
2019-03-26T06:08:37.783Z,6.30
2019-03-26T06:11:05.406Z,6.30
2019-03-26T06:13:32.972Z,6.30
2019-03-26T06:16:00.545Z,6.30
2019-03-26T06:18:28.215Z,6.30
2019-03-26T06:20:55.785Z,6.30
2019-03-26T06:23:23.361Z,6.30
2019-03-26T06:25:50.983Z,6.30
2019-03-26T06:28:18.554Z,6.40
2019-03-26T06:30:46.126Z,6.40
2019-03-26T06:33:14.144Z,6.40
2019-03-26T06:35:41.687Z,6.40
2019-03-26T06:38:09.259Z,6.50
2019-03-26T06:40:36.886Z,6.60
2019-03-26T06:43:04.462Z,6.70
2019-03-26T06:45:32.028Z,6.80
2019-03-26T06:47:59.655Z,6.90
2019-03-26T06:50:27.227Z,6.90
2019-03-26T06:52:54.802Z,7.00
2019-03-26T06:55:22.901Z,7.10
2019-03-26T06:57:50.477Z,7.10
2019-03-26T07:00:18.060Z,7.10
2019-03-26T07:02:45.686Z,7.10
2019-03-26T07:05:13.274Z,7.10
2019-03-26T07:07:40.839Z,7.20
2019-03-26T07:10:09.230Z,7.30
2019-03-26T07:12:36.801Z,7.30
2019-03-26T07:15:04.367Z,7.30
2019-03-26T07:17:32.032Z,7.30
2019-03-26T07:19:59.603Z,7.20
2019-03-26T07:22:27.178Z,7.30
2019-03-26T07:24:54.797Z,7.30
2019-03-26T07:27:22.370Z,7.30
2019-03-26T07:29:49.951Z,7.30
2019-03-26T07:32:17.556Z,7.30
2019-03-26T07:34:45.127Z,7.30
2019-03-26T07:37:13.468Z,7.40
2019-03-26T07:39:41.432Z,7.40
2019-03-26T07:42:09.002Z,7.40
2019-03-26T07:44:36.575Z,7.50
2019-03-26T07:47:04.218Z,7.50
2019-03-26T07:49:31.789Z,7.70
2019-03-26T07:51:59.372Z,7.70
2019-03-26T07:54:27.838Z,7.70
2019-03-26T07:56:55.415Z,7.70
2019-03-26T07:59:22.992Z,7.80
2019-03-26T08:01:50.656Z,7.90
2019-03-26T08:04:19.004Z,8.00
2019-03-26T08:06:46.672Z,8.00
2019-03-26T08:09:14.704Z,8.00
2019-03-26T08:11:42.227Z,8.10
2019-03-26T08:14:10.584Z,8.10
2019-03-26T08:16:38.202Z,8.10
2019-03-26T08:19:05.783Z,8.10
2019-03-26T08:21:33.362Z,8.10
2019-03-26T08:24:01.830Z,8.10
2019-03-26T08:26:29.433Z,8.10
2019-03-26T08:28:56.993Z,8.00
2019-03-26T08:31:24.640Z,8.00
2019-03-26T08:33:52.220Z,8.00
2019-03-26T08:36:19.820Z,8.10
2019-03-26T08:38:47.447Z,8.20
2019-03-26T08:41:15.800Z,8.10
2019-03-26T08:43:43.383Z,8.10
2019-03-26T08:46:11.016Z,8.00
2019-03-26T08:48:38.600Z,8.00
2019-03-26T08:51:06.179Z,7.90
2019-03-26T08:53:34.575Z,8.10
2019-03-26T08:56:02.153Z,8.00
2019-03-26T08:58:29.732Z,8.10
2019-03-26T09:00:57.373Z,8.00
2019-03-26T09:03:24.967Z,8.00
2019-03-26T09:05:52.544Z,8.00
2019-03-26T09:08:25.205Z,7.90
2019-03-26T09:10:51.876Z,8.00
2019-03-26T09:13:15.343Z,8.20
2019-03-26T09:15:42.976Z,8.20
2019-03-26T09:18:10.556Z,8.20
2019-03-26T09:20:38.145Z,8.20
2019-03-26T09:23:05.777Z,8.40
2019-03-26T09:25:33.359Z,8.60
2019-03-26T09:28:00.944Z,8.70
2019-03-26T09:30:28.609Z,8.70
2019-03-26T09:32:56.184Z,8.70
2019-03-26T09:35:23.768Z,8.70
2019-03-26T09:37:51.388Z,8.70
2019-03-26T09:40:18.975Z,8.70
2019-03-26T09:42:46.557Z,8.70
2019-03-26T09:45:14.181Z,8.80
2019-03-26T09:47:41.757Z,8.80
2019-03-26T09:50:09.334Z,8.80
2019-03-26T09:52:36.967Z,8.70
2019-03-26T09:55:07.544Z,8.70
2019-03-26T09:57:35.123Z,8.70
2019-03-26T10:00:02.780Z,8.70
2019-03-26T10:02:30.356Z,8.60
2019-03-26T10:04:58.714Z,8.70
2019-03-26T10:07:26.336Z,8.60
2019-03-26T10:09:53.920Z,8.70
2019-03-26T10:12:21.501Z,8.80
2019-03-26T10:14:49.136Z,8.90
2019-03-26T10:17:16.716Z,9.00
2019-03-26T10:19:44.295Z,9.10
2019-03-26T10:22:11.923Z,9.20
2019-03-26T10:24:39.499Z,9.30
2019-03-26T10:27:07.074Z,9.40
2019-03-26T10:29:34.757Z,9.40
2019-03-26T10:32:02.337Z,9.60
2019-03-26T10:34:29.909Z,9.90
2019-03-26T10:36:57.541Z,10.10
2019-03-26T10:39:25.441Z,10.10
2019-03-26T10:41:53.021Z,10.20
2019-03-26T10:44:20.648Z,10.20
2019-03-26T10:46:48.562Z,10.30
2019-03-26T10:49:16.138Z,10.40
2019-03-26T10:51:43.797Z,10.60
2019-03-26T10:54:11.381Z,10.70
2019-03-26T10:56:38.961Z,10.90
2019-03-26T10:59:06.840Z,11.00
2019-03-26T11:01:34.434Z,10.90
2019-03-26T11:04:02.024Z,10.90
2019-03-26T11:06:29.653Z,10.70
2019-03-26T11:08:57.238Z,10.60
2019-03-26T11:11:24.827Z,10.60
2019-03-26T11:13:53.987Z,10.60
2019-03-26T11:16:21.564Z,10.60
2019-03-26T11:18:49.152Z,10.60
2019-03-26T11:21:17.625Z,10.70
2019-03-26T11:23:45.217Z,10.70
2019-03-26T11:26:12.800Z,10.80
2019-03-26T11:28:40.503Z,10.80
2019-03-26T11:31:08.085Z,10.80
2019-03-26T11:33:36.438Z,11.00
2019-03-26T11:36:04.085Z,10.90
2019-03-26T11:38:31.665Z,11.00
2019-03-26T11:40:59.248Z,11.00
2019-03-26T11:43:27.642Z,11.10
2019-03-26T11:45:55.992Z,11.10
2019-03-26T11:48:23.574Z,11.10
2019-03-26T11:50:51.977Z,11.20
2019-03-26T11:53:19.556Z,11.20
2019-03-26T11:55:47.147Z,11.30
2019-03-26T11:58:14.772Z,11.40
2019-03-26T12:00:42.768Z,11.50
2019-03-26T12:03:10.349Z,11.60
2019-03-26T12:05:38.054Z,11.60
2019-03-26T12:08:05.641Z,11.60
2019-03-26T12:10:33.223Z,11.60
2019-03-26T12:13:00.860Z,11.60
2019-03-26T12:15:28.440Z,11.70
2019-03-26T12:17:56.022Z,11.70
2019-03-26T12:20:23.658Z,11.70
2019-03-26T12:22:51.249Z,11.70
2019-03-26T12:25:18.830Z,11.70
2019-03-26T12:27:47.697Z,11.80
2019-03-26T12:30:15.278Z,11.80
2019-03-26T12:32:42.867Z,11.80
2019-03-26T12:35:10.510Z,11.80
2019-03-26T12:37:38.087Z,11.70
2019-03-26T12:40:08.338Z,11.50
2019-03-26T12:42:35.974Z,11.50
2019-03-26T12:45:06.665Z,11.40
2019-03-26T12:47:31.137Z,11.30
2019-03-26T12:49:58.764Z,11.30
2019-03-26T12:52:26.343Z,11.40
2019-03-26T12:54:54.131Z,11.60
2019-03-26T12:57:22.235Z,11.60
2019-03-26T12:59:50.586Z,11.70
2019-03-26T13:02:18.169Z,11.70
2019-03-26T13:04:45.800Z,11.80
2019-03-26T13:07:13.378Z,11.90
2019-03-26T13:09:42.036Z,11.90
2019-03-26T13:12:08.601Z,11.90
2019-03-26T13:14:36.175Z,11.90
2019-03-26T13:17:03.756Z,12.00
2019-03-26T13:19:32.174Z,12.10
2019-03-26T13:21:59.756Z,12.10
2019-03-26T13:24:27.339Z,12.10
2019-03-26T13:26:55.411Z,12.20
2019-03-26T13:29:22.991Z,12.20
2019-03-26T13:31:51.346Z,12.40
2019-03-26T13:34:19.061Z,12.40
2019-03-26T13:36:46.645Z,12.40
2019-03-26T13:39:14.729Z,12.30
2019-03-26T13:41:42.360Z,12.10
2019-03-26T13:44:09.940Z,12.00
2019-03-26T13:46:37.522Z,11.80
2019-03-26T13:49:05.935Z,11.70
2019-03-26T13:51:33.526Z,11.70
2019-03-26T13:54:01.111Z,11.70
2019-03-26T13:56:28.736Z,11.70
2019-03-26T13:58:57.081Z,11.60
2019-03-26T14:01:24.663Z,11.70
2019-03-26T14:03:52.355Z,11.70
2019-03-26T14:06:19.934Z,11.80
2019-03-26T14:08:47.523Z,11.80
2019-03-26T14:11:15.145Z,11.90
2019-03-26T14:13:42.740Z,12.00
2019-03-26T14:16:10.307Z,12.10
2019-03-26T14:18:37.941Z,12.20
2019-03-26T14:21:05.536Z,12.20
2019-03-26T14:23:33.383Z,12.20
2019-03-26T14:26:01.048Z,12.20
2019-03-26T14:28:28.629Z,12.20
2019-03-26T14:30:56.681Z,12.10
2019-03-26T14:33:24.373Z,12.00
2019-03-26T14:35:51.952Z,12.00
2019-03-26T14:38:19.532Z,11.90
2019-03-26T14:40:54.756Z,11.90
2019-03-26T14:43:14.744Z,11.90
2019-03-26T14:45:43.175Z,11.90
2019-03-26T14:48:11.068Z,11.80
2019-03-26T14:50:38.663Z,11.70
2019-03-26T14:53:07.010Z,11.60
2019-03-26T14:55:34.648Z,11.60
2019-03-26T14:58:02.234Z,11.50
2019-03-26T15:00:29.811Z,11.40
2019-03-26T15:02:58.208Z,11.50
2019-03-26T15:05:26.555Z,11.60
2019-03-26T15:07:54.136Z,11.60
2019-03-26T15:10:23.625Z,11.90
2019-03-26T15:12:50.128Z,11.90
2019-03-26T15:15:17.713Z,11.90
2019-03-26T15:17:45.352Z,11.70
2019-03-26T15:20:12.933Z,11.60
2019-03-26T15:22:40.516Z,11.40
2019-03-26T15:25:08.170Z,11.20
2019-03-26T15:27:35.730Z,11.20
2019-03-26T15:30:03.314Z,11.20
2019-03-26T15:32:31.716Z,11.20
2019-03-26T15:34:59.301Z,11.20
2019-03-26T15:37:26.872Z,11.20
2019-03-26T15:39:55.392Z,11.10
2019-03-26T15:42:23.527Z,11.20
2019-03-26T15:44:51.114Z,11.20
2019-03-26T15:47:18.742Z,11.10
2019-03-26T15:49:46.330Z,11.00
2019-03-26T15:52:13.904Z,11.10
2019-03-26T15:54:41.704Z,11.10
2019-03-26T15:57:10.058Z,11.10
2019-03-26T15:59:37.638Z,11.10
2019-03-26T16:02:06.034Z,11.10
2019-03-26T16:04:33.645Z,11.10
2019-03-26T16:07:01.233Z,11.00
2019-03-26T16:09:29.696Z,10.80
2019-03-26T16:11:57.276Z,10.80
2019-03-26T16:14:28.052Z,10.60
2019-03-26T16:16:53.243Z,10.60
2019-03-26T16:19:32.108Z,10.50
2019-03-26T16:21:48.527Z,10.40
2019-03-26T16:24:16.070Z,10.20
2019-03-26T16:26:43.705Z,10.10
2019-03-26T16:29:11.265Z,9.90
2019-03-26T16:31:38.955Z,9.90
2019-03-26T16:34:06.521Z,9.80
2019-03-26T16:36:34.108Z,9.70
2019-03-26T16:39:01.808Z,9.60
2019-03-26T16:41:29.363Z,9.60
2019-03-26T16:43:56.974Z,9.60
2019-03-26T16:46:24.693Z,9.50
2019-03-26T16:48:52.298Z,9.50
2019-03-26T16:51:19.974Z,9.40
2019-03-26T16:53:47.523Z,9.40
2019-03-26T16:56:15.099Z,9.50
2019-03-26T16:58:42.682Z,9.60
2019-03-26T17:01:11.560Z,9.70
2019-03-26T17:03:39.125Z,9.70
2019-03-26T17:06:07.477Z,9.60
2019-03-26T17:08:35.103Z,9.60
2019-03-26T17:11:02.680Z,9.50
2019-03-26T17:13:30.264Z,9.50
2019-03-26T17:15:57.888Z,9.50
2019-03-26T17:18:25.471Z,9.50
2019-03-26T17:20:53.339Z,9.40
2019-03-26T17:23:20.964Z,9.40
2019-03-26T17:25:48.543Z,9.40
2019-03-26T17:28:16.126Z,9.30
2019-03-26T17:30:43.749Z,9.30
2019-03-26T17:33:11.348Z,9.20
2019-03-26T17:35:38.930Z,9.20
2019-03-26T17:38:06.634Z,9.20
2019-03-26T17:40:34.978Z,9.30
2019-03-26T17:43:02.603Z,9.30
2019-03-26T17:45:30.310Z,9.30
2019-03-26T17:47:57.945Z,9.20
2019-03-26T17:50:25.519Z,9.20
2019-03-26T17:52:53.159Z,9.20
2019-03-26T17:55:20.735Z,9.20
2019-03-26T17:57:48.317Z,9.20
2019-03-26T18:00:15.988Z,9.20
2019-03-26T18:02:43.572Z,9.10
2019-03-26T18:05:27.141Z,9.20
2019-03-26T18:07:54.728Z,9.20
2019-03-26T18:10:22.305Z,9.20
2019-03-26T18:12:49.937Z,9.20
2019-03-26T18:15:17.518Z,9.20
2019-03-26T18:17:45.100Z,9.20
2019-03-26T18:20:12.727Z,9.20
2019-03-26T18:22:40.321Z,9.30
2019-03-26T18:25:07.913Z,9.30
2019-03-26T18:27:36.074Z,9.30
2019-03-26T18:30:03.684Z,9.30
2019-03-26T18:32:31.226Z,9.20
2019-03-26T18:34:58.944Z,9.20
2019-03-26T18:37:26.529Z,9.20
2019-03-26T18:39:55.160Z,9.20
2019-03-26T18:42:22.867Z,9.20
2019-03-26T18:44:51.227Z,9.10
2019-03-26T18:47:18.819Z,9.10
2019-03-26T18:49:47.236Z,9.10
2019-03-26T18:52:14.837Z,9.10
2019-03-26T18:54:42.429Z,9.20
2019-03-26T18:57:10.064Z,9.20
2019-03-26T18:59:37.649Z,9.20
2019-03-26T19:02:05.242Z,9.10
2019-03-26T19:04:32.889Z,9.10
2019-03-26T19:07:00.471Z,9.10
2019-03-26T19:09:28.066Z,9.10
2019-03-26T19:11:55.787Z,9.00
2019-03-26T19:14:24.114Z,9.00
2019-03-26T19:16:51.712Z,8.90
2019-03-26T19:19:19.346Z,8.90
2019-03-26T19:21:46.931Z,8.90
2019-03-26T19:24:15.337Z,8.90
2019-03-26T19:26:43.040Z,8.90
2019-03-26T19:29:10.622Z,8.90
2019-03-26T19:31:38.968Z,9.00
2019-03-26T19:34:06.611Z,9.00
2019-03-26T19:36:34.199Z,9.10
2019-03-26T19:39:01.786Z,9.10
2019-03-26T19:41:29.414Z,9.10
2019-03-26T19:43:56.999Z,9.10
2019-03-26T19:46:24.579Z,9.10
2019-03-26T19:48:52.209Z,9.10
2019-03-26T19:51:19.792Z,9.10
2019-03-26T19:53:47.386Z,9.10
2019-03-26T19:56:15.051Z,9.20
2019-03-26T19:58:42.594Z,9.20
2019-03-26T20:01:10.175Z,9.20
2019-03-26T20:03:37.813Z,9.20
2019-03-26T20:06:13.215Z,9.10
2019-03-26T20:08:34.205Z,9.10
2019-03-26T20:11:01.835Z,9.10
2019-03-26T20:13:30.182Z,9.10
2019-03-26T20:15:57.865Z,9.10
2019-03-26T20:18:25.520Z,9.10
2019-03-26T20:20:53.098Z,9.20
2019-03-26T20:23:21.447Z,9.30
2019-03-26T20:25:49.069Z,9.30
2019-03-26T20:28:16.959Z,9.20
2019-03-26T20:30:44.560Z,9.10
2019-03-26T20:33:13.105Z,9.10
2019-03-26T20:35:40.617Z,9.10
2019-03-26T20:38:08.963Z,9.00
2019-03-26T20:40:36.632Z,9.00
2019-03-26T20:43:04.360Z,9.00
2019-03-26T20:45:31.855Z,9.00
2019-03-26T20:47:59.525Z,8.90
2019-03-26T20:50:27.102Z,9.10
2019-03-26T20:52:55.450Z,9.10
2019-03-26T20:55:23.081Z,9.10
2019-03-26T20:57:50.663Z,9.10
2019-03-26T21:00:23.864Z,9.00
2019-03-26T21:02:51.579Z,9.00
2019-03-26T21:05:19.156Z,8.90
2019-03-26T21:07:47.921Z,8.90
2019-03-26T21:10:14.733Z,8.90
2019-03-26T21:12:42.319Z,8.80
2019-03-26T21:15:10.671Z,8.90
2019-03-26T21:17:38.336Z,8.90
2019-03-26T21:20:05.917Z,8.90
2019-03-26T21:22:34.272Z,9.00
2019-03-26T21:25:01.951Z,9.10
2019-03-26T21:27:29.532Z,9.10
2019-03-26T21:30:10.225Z,9.20
2019-03-26T21:32:25.541Z,9.10
2019-03-26T21:34:53.172Z,9.10
2019-03-26T21:37:21.480Z,9.00
2019-03-26T21:39:49.159Z,9.00
2019-03-26T21:42:16.741Z,9.00
2019-03-26T21:44:45.085Z,8.90
2019-03-26T21:47:12.774Z,8.90
2019-03-26T21:49:41.134Z,8.80
2019-03-26T21:52:08.716Z,8.80
2019-03-26T21:54:37.107Z,8.80
2019-03-26T21:57:05.464Z,8.80
2019-03-26T21:59:33.048Z,8.80
2019-03-26T22:02:02.036Z,8.70
2019-03-26T22:04:30.388Z,8.70
2019-03-26T22:06:57.981Z,8.70
2019-03-26T22:09:27.370Z,8.70
2019-03-26T22:11:54.951Z,8.70
2019-03-26T22:14:23.297Z,8.80
2019-03-26T22:16:50.970Z,8.80
2019-03-26T22:19:28.526Z,8.80
2019-03-26T22:21:46.903Z,8.80
2019-03-26T22:24:17.021Z,8.80
2019-03-26T22:26:42.121Z,8.80
2019-03-26T22:29:09.704Z,8.90
2019-03-26T22:31:37.313Z,8.90
2019-03-26T22:34:04.905Z,8.80
2019-03-26T22:36:32.489Z,8.70
2019-03-26T22:39:00.879Z,8.70
2019-03-26T22:41:29.221Z,8.60
2019-03-26T22:43:56.807Z,8.60
2019-03-26T22:46:24.466Z,8.60
2019-03-26T22:48:52.057Z,8.50
2019-03-26T22:51:20.395Z,8.40
2019-03-26T22:53:48.072Z,8.40
2019-03-26T22:56:15.702Z,8.40
2019-03-26T22:58:43.314Z,8.30
2019-03-26T23:01:10.868Z,8.50
2019-03-26T23:03:39.211Z,8.40
2019-03-26T23:06:06.791Z,8.40
2019-03-26T23:08:34.429Z,8.40
2019-03-26T23:11:02.298Z,8.30
2019-03-26T23:13:29.883Z,8.50
2019-03-26T23:15:57.527Z,8.50
2019-03-26T23:18:25.107Z,8.40
2019-03-26T23:20:52.687Z,8.40
2019-03-26T23:23:20.403Z,8.30
2019-03-26T23:25:47.946Z,8.40
2019-03-26T23:28:15.577Z,8.50
2019-03-26T23:30:43.911Z,8.40
2019-03-26T23:33:11.494Z,8.40
2019-03-26T23:35:39.073Z,8.40
2019-03-26T23:38:07.456Z,8.30
2019-03-26T23:40:35.035Z,8.30
2019-03-26T23:43:03.384Z,8.20
2019-03-26T23:45:30.997Z,8.20
2019-03-26T23:47:58.577Z,8.20
2019-03-26T23:50:26.165Z,8.30
2019-03-26T23:52:53.791Z,8.40
2019-03-26T23:55:21.375Z,8.30
2019-03-26T23:57:48.952Z,8.40
